Terminal Aerodrome Forecast
Issued by NWS

Home | Current Version | Previous Version | Text Only | Print | Product List | Glossary On
Versions: 1 2 3 4 5 6 7 8 9 10 11 12 13 14 15 16
668
FTUS41 KPHI 211724
TAFMIV
TAF
KMIV 211724Z 2118/2218 18007KT P6SM VCSH SCT050 SCT250
     FM220200 VRB03KT P6SM SCT040 BKN250
     FM220600 VRB03KT 5SM BR BKN007
     FM221300 VRB03KT P6SM BKN012
     FM221500 19008KT P6SM SCT015 SCT050 BKN250=

USA.gov is the U.S. government's official web portal to all federal, state and local government web resources and services.